Time;durP1;ratioP1;P1;durP2;ratioP2;P2;SDS_P1;SDS_P2;PMS_P1;PMS_P2;Temp;Humidity;BMP_temperature;BMP_pressure;BME280_temperature;BME280_humidity;BME280_pressure;Samples;Min_cycle;Max_cycle;Signal;HPM_P1;HPM_P2
2021/08/02 00:01:29;;;;;;;1.70;1.60;;;;;;;22.18;100.00;97030.56;5022118;28;20210;-68
2021/08/02 00:03:56;;;;;;;1.60;1.50;;;;;;;23.06;100.00;97180.81;5001573;28;20293;-67
2021/08/02 00:06:24;;;;;;;1.60;1.50;;;;;;;22.97;100.00;97162.69;5005252;28;20241;-67
2021/08/02 00:09:06;;;;;;;1.90;1.77;;;;;;;23.07;100.00;97179.13;5013330;28;20288;-68
2021/08/02 00:11:40;;;;;;;1.80;1.70;;;;;;;23.03;100.00;97173.06;5005108;28;20229;-67
2021/08/02 00:14:08;;;;;;;2.20;1.77;;;;;;;23.03;100.00;97170.50;5017522;28;20264;-67
2021/08/02 00:16:36;;;;;;;2.07;1.67;;;;;;;23.07;100.00;97182.53;4985770;28;20244;-67
2021/08/02 00:19:04;;;;;;;1.60;1.50;;;;;;;23.01;100.00;97161.06;4982057;28;20225;-67
2021/08/02 00:21:31;;;;;;;3.20;1.50;;;;;;;22.88;100.00;97152.28;4978068;28;21065;-67
2021/08/02 00:23:58;;;;;;;1.87;1.77;;;;;;;23.08;100.00;97178.28;4996106;28;20657;-67
2021/08/02 00:26:24;;;;;;;1.80;1.70;;;;;;;22.53;100.00;97091.00;4982337;28;20206;-67
2021/08/02 00:28:51;;;;;;;1.70;1.60;;;;;;;22.65;100.00;97110.00;4985715;28;20762;-65
2021/08/02 00:31:18;;;;;;;1.83;1.73;;;;;;;23.04;100.00;97176.50;4983442;28;20210;-67
2021/08/02 00:33:44;;;;;;;1.73;1.50;;;;;;;22.87;100.00;97148.00;5000173;28;20288;-67
2021/08/02 00:36:20;;;;;;;1.70;1.60;;;;;;;22.99;100.00;97171.28;4983225;28;20642;-67
2021/08/02 00:38:55;;;;;;;1.80;1.60;;;;;;;23.04;100.00;97190.16;4988107;28;20425;-67
2021/08/02 00:41:32;;;;;;;2.10;1.70;;;;;;;22.23;100.00;97057.13;4982328;28;20209;-67
2021/08/02 00:44:36;;;;;;;1.70;1.60;;;;;;;23.01;100.00;97189.25;4995365;28;20571;-67
2021/08/02 00:47:05;;;;;;;1.60;1.50;;;;;;;22.97;100.00;97185.78;5025675;28;20335;-68
2021/08/02 00:49:32;;;;;;;1.80;1.70;;;;;;;22.64;100.00;97125.34;4984585;28;20292;-67
2021/08/02 00:52:00;;;;;;;1.97;1.77;;;;;;;22.93;100.00;97168.63;4978906;28;20214;-67
2021/08/02 00:54:27;;;;;;;1.70;1.60;;;;;;;22.49;100.00;97094.28;5002704;28;20206;-67
2021/08/02 00:56:58;;;;;;;1.50;1.40;;;;;;;22.96;100.00;97178.94;4985066;28;20229;-67
2021/08/02 00:59:26;;;;;;;1.70;1.60;;;;;;;23.03;100.00;97191.00;4996827;28;20221;-68
2021/08/02 01:01:54;;;;;;;1.70;1.60;;;;;;;23.03;100.00;97185.00;5006772;28;21003;-67
2021/08/02 01:04:23;;;;;;;1.70;1.60;;;;;;;23.03;100.00;97188.44;4978541;28;20481;-67
2021/08/02 01:06:51;;;;;;;1.60;1.50;;;;;;;22.90;100.00;97163.44;4986084;28;20206;-67
2021/08/02 01:09:18;;;;;;;1.83;1.73;;;;;;;23.04;100.00;97184.19;4982039;28;20304;-67
2021/08/02 01:11:45;;;;;;;1.73;1.63;;;;;;;22.64;100.00;97107.41;4985629;28;20847;-67
2021/08/02 01:14:11;;;;;;;1.80;1.70;;;;;;;23.04;100.00;97176.50;4984550;28;20214;-67
2021/08/02 01:16:38;;;;;;;3.27;1.83;;;;;;;23.05;100.00;97180.78;5003052;28;20209;-67
2021/08/02 01:19:08;;;;;;;1.90;1.80;;;;;;;23.05;100.00;97191.91;4982128;28;20309;-67
2021/08/02 01:21:39;;;;;;;2.13;1.40;;;;;;;23.05;100.00;97194.47;4992319;28;20265;-67
2021/08/02 01:24:07;;;;;;;2.10;1.80;;;;;;;22.74;100.00;97130.66;4997371;28;20264;-67
2021/08/02 01:26:42;;;;;;;1.60;1.50;;;;;;;23.05;100.00;97179.09;5008033;28;20211;-67
2021/08/02 01:29:46;;;;;;;1.70;1.60;;;;;;;23.06;100.00;97183.38;5023359;28;20229;-67
2021/08/02 01:32:17;;;;;;;1.70;1.60;;;;;;;22.96;100.00;97168.69;5021465;28;20260;-67
2021/08/02 01:34:44;;;;;;;1.60;1.50;;;;;;;22.91;100.00;97164.28;4985611;28;20214;-67
2021/08/02 01:37:11;;;;;;;1.70;1.60;;;;;;;22.08;100.00;97021.00;4999363;28;20213;-67
2021/08/02 01:39:40;;;;;;;1.80;1.70;;;;;;;23.06;100.00;97190.19;5000757;28;20264;-68
2021/08/02 01:42:06;;;;;;;1.70;1.60;;;;;;;22.92;100.00;97161.75;4981574;28;20234;-67
2021/08/02 01:44:33;;;;;;;1.73;1.63;;;;;;;21.30;100.00;96888.13;4985864;28;20264;-67
2021/08/02 01:47:32;;;;;;;1.60;1.50;;;;;;;22.99;100.00;97175.53;4977644;28;20202;-67
2021/08/02 01:50:16;;;;;;;2.07;1.80;;;;;;;22.25;100.00;97065.66;4987643;28;20230;-67
2021/08/02 01:53:02;;;;;;;1.60;1.50;;;;;;;23.00;100.00;97188.38;5010897;28;20878;-67
2021/08/02 01:55:28;;;;;;;1.80;1.70;;;;;;;23.00;100.00;97195.19;4987010;28;20206;-67
2021/08/02 01:58:00;;;;;;;1.67;1.57;;;;;;;22.99;100.00;97194.34;4979971;28;20280;-67
2021/08/02 02:00:27;;;;;;;1.73;1.63;;;;;;;22.99;100.00;97194.34;4981766;28;20244;-67
2021/08/02 02:03:02;;;;;;;1.90;1.67;;;;;;;22.69;100.00;97141.69;4983042;28;20222;-67
2021/08/02 02:05:32;;;;;;;1.70;1.60;;;;;;;22.93;100.00;97189.13;4984577;28;20205;-67
2021/08/02 02:08:44;;;;;;;1.50;1.40;;;;;;;23.00;100.00;97205.47;4984287;28;20226;-67
2021/08/02 02:11:11;;;;;;;1.70;1.60;;;;;;;22.96;100.00;97198.56;4998352;28;20726;-68
2021/08/02 02:13:42;;;;;;;1.70;1.60;;;;;;;22.86;100.00;97176.16;4978021;28;20668;-67
2021/08/02 02:16:09;;;;;;;1.70;1.60;;;;;;;22.78;100.00;97165.78;4983559;28;20735;-67
2021/08/02 02:18:38;;;;;;;1.70;1.60;;;;;;;23.00;100.00;97215.69;4993998;28;20842;-65
2021/08/02 02:21:08;;;;;;;1.67;1.57;;;;;;;22.75;100.00;97169.97;5007609;28;20656;-67
2021/08/02 02:23:34;;;;;;;1.57;1.47;;;;;;;22.85;100.00;97195.78;5007727;28;20249;-67
2021/08/02 02:26:01;;;;;;;1.70;1.60;;;;;;;22.19;100.00;97075.78;4995750;28;20233;-67
2021/08/02 02:28:27;;;;;;;1.77;1.67;;;;;;;23.03;100.00;97223.44;5034076;23;20585;-66
2021/08/02 02:30:56;;;;;;;1.60;1.50;;;;;;;23.02;100.00;97220.03;4984471;28;20210;-67
2021/08/02 02:33:23;;;;;;;1.83;1.73;;;;;;;22.24;100.00;97093.00;4983295;28;20246;-66
2021/08/02 02:35:50;;;;;;;1.80;1.70;;;;;;;22.03;100.00;97053.31;4991300;28;20268;-66
2021/08/02 02:38:16;;;;;;;1.60;1.50;;;;;;;23.03;100.00;97218.31;4971363;28;20266;-63
2021/08/02 02:40:43;;;;;;;1.60;1.50;;;;;;;22.90;100.00;97195.88;4971341;28;20218;-66
2021/08/02 02:43:11;;;;;;;1.60;1.50;;;;;;;23.03;100.00;97229.44;4971565;28;20214;-65
2021/08/02 02:45:38;;;;;;;1.53;1.43;;;;;;;23.04;100.00;97238.03;4987731;28;20294;-66
2021/08/02 02:48:05;;;;;;;1.90;1.80;;;;;;;23.03;100.00;97234.56;4969874;28;20245;-66
2021/08/02 02:50:32;;;;;;;1.70;1.60;;;;;;;23.04;100.00;97238.03;4962552;28;20681;-66
2021/08/02 02:52:59;;;;;;;1.60;1.50;;;;;;;23.03;100.00;97234.56;4967867;28;20211;-66
2021/08/02 02:55:26;;;;;;;3.60;1.60;;;;;;;23.04;100.00;97238.03;4987389;28;20203;-66
2021/08/02 02:57:53;;;;;;;1.60;1.50;;;;;;;23.04;100.00;97240.56;4972466;28;20231;-66
2021/08/02 03:00:19;;;;;;;1.70;1.60;;;;;;;23.04;100.00;97248.28;4967051;28;20210;-66
2021/08/02 03:02:46;;;;;;;1.50;1.40;;;;;;;23.04;100.00;97243.16;4969063;28;20266;-66
2021/08/02 03:05:13;;;;;;;1.60;1.50;;;;;;;23.04;100.00;97251.66;4971525;28;20234;-66
2021/08/02 03:07:40;;;;;;;1.37;1.30;;;;;;;22.88;100.00;97215.47;4965982;28;20289;-67
2021/08/02 03:10:07;;;;;;;2.43;1.60;;;;;;;22.88;100.00;97218.91;4986044;28;20257;-66
2021/08/02 03:12:34;;;;;;;1.73;1.63;;;;;;;23.05;100.00;97244.84;4964768;28;20238;-66
2021/08/02 03:15:03;;;;;;;1.70;1.60;;;;;;;23.04;100.00;97246.56;4980267;28;20210;-67
2021/08/02 03:17:30;;;;;;;1.50;1.40;;;;;;;23.03;100.00;97246.53;4970330;28;20669;-66
2021/08/02 03:19:57;;;;;;;1.50;1.40;;;;;;;23.03;100.00;97246.53;4970642;28;20207;-67
2021/08/02 03:22:31;;;;;;;1.80;1.70;;;;;;;23.01;100.00;97250.78;4995610;28;20235;-67
2021/08/02 03:25:15;;;;;;;1.73;1.63;;;;;;;23.00;100.00;97241.34;4967705;28;20258;-66
2021/08/02 03:27:50;;;;;;;1.70;1.60;;;;;;;22.98;100.00;97246.44;4984198;28;20343;-68
2021/08/02 03:30:16;;;;;;;1.57;1.47;;;;;;;22.82;100.00;97220.47;4985972;28;20276;-66
2021/08/02 03:32:44;;;;;;;1.50;1.40;;;;;;;22.98;100.00;97237.91;4960241;28;20211;-64
2021/08/02 03:35:13;;;;;;;1.57;1.47;;;;;;;22.98;100.00;97250.72;4984739;28;20215;-66
2021/08/02 03:37:40;;;;;;;1.60;1.50;;;;;;;22.98;100.00;97250.72;4984518;28;20214;-66
2021/08/02 03:40:07;;;;;;;1.50;1.40;;;;;;;22.99;100.00;97252.44;4959239;28;20207;-66
2021/08/02 03:42:35;;;;;;;1.57;1.47;;;;;;;22.99;100.00;97244.75;4976918;28;20218;-66
2021/08/02 03:45:02;;;;;;;1.50;1.40;;;;;;;22.84;100.00;97226.50;4974229;28;20226;-68
2021/08/02 03:47:29;;;;;;;1.50;1.40;;;;;;;22.99;100.00;97253.31;4977882;28;20743;-66
2021/08/02 03:49:56;;;;;;;1.50;1.40;;;;;;;23.00;100.00;97255.03;4976406;28;20277;-65
2021/08/02 03:52:22;;;;;;;1.60;1.50;;;;;;;23.00;100.00;97262.72;4968029;28;20207;-66
2021/08/02 03:54:49;;;;;;;1.80;1.70;;;;;;;23.00;100.00;97265.28;4959727;28;20211;-67
2021/08/02 03:57:16;;;;;;;1.50;1.40;;;;;;;21.97;100.00;97089.00;4970567;28;20215;-66
2021/08/02 03:59:42;;;;;;;1.53;1.43;;;;;;;22.82;100.00;97246.09;4968559;28;20273;-66
2021/08/02 04:02:09;;;;;;;1.70;1.60;;;;;;;22.86;100.00;97253.88;4957892;28;20627;-66
2021/08/02 04:04:37;;;;;;;1.50;1.40;;;;;;;23.01;100.00;97273.84;4973932;28;20218;-65
2021/08/02 04:07:04;;;;;;;1.57;1.47;;;;;;;22.87;100.00;97250.50;4979694;28;20669;-65
2021/08/02 04:09:30;;;;;;;1.60;1.50;;;;;;;23.01;100.00;97281.53;4969368;28;20651;-66
2021/08/02 04:11:57;;;;;;;1.60;1.50;;;;;;;23.01;100.00;97284.94;4986141;28;20261;-66
2021/08/02 04:14:24;;;;;;;1.90;1.80;;;;;;;23.01;100.00;97286.66;4966452;28;20215;-66
2021/08/02 04:16:50;;;;;;;1.70;1.60;;;;;;;22.45;100.00;97203.50;4968044;28;20301;-66
2021/08/02 04:19:17;;;;;;;1.73;1.50;;;;;;;22.88;100.00;97265.03;5001699;28;20277;-66
2021/08/02 04:21:44;;;;;;;1.30;1.30;;;;;;;22.86;100.00;97264.13;4968465;28;20211;-65
2021/08/02 04:24:10;;;;;;;1.50;1.40;;;;;;;22.88;100.00;97267.59;4986483;28;20210;-66
2021/08/02 04:26:37;;;;;;;1.53;1.43;;;;;;;23.01;100.00;97289.22;4983612;28;20242;-66
2021/08/02 04:29:04;;;;;;;2.10;1.43;;;;;;;22.99;100.00;97302.00;4966970;28;20235;-66
2021/08/02 04:31:31;;;;;;;1.53;1.43;;;;;;;22.80;100.00;97265.72;4967547;28;20557;-65
2021/08/02 04:34:01;;;;;;;1.50;1.40;;;;;;;22.97;100.00;97297.66;4983831;28;20218;-67
2021/08/02 04:36:28;;;;;;;1.40;1.30;;;;;;;22.97;100.00;97308.78;4987242;28;20291;-66
2021/08/02 04:38:55;;;;;;;1.63;1.53;;;;;;;22.97;100.00;97308.78;4984835;28;20309;-66
2021/08/02 04:41:21;;;;;;;1.63;1.53;;;;;;;22.97;100.00;97319.03;4986286;28;20294;-66
2021/08/02 04:43:48;;;;;;;2.30;1.77;;;;;;;22.97;100.00;97313.03;4984687;28;20238;-66
2021/08/02 04:46:14;;;;;;;2.17;1.40;;;;;;;22.97;100.00;97311.34;4986197;28;20310;-66
2021/08/02 04:48:41;;;;;;;1.60;1.50;;;;;;;22.98;100.00;97314.78;4983183;28;20258;-65
2021/08/02 04:51:08;;;;;;;1.63;1.53;;;;;;;22.99;100.00;97313.94;4983254;28;20309;-64
2021/08/02 04:53:35;;;;;;;1.50;1.40;;;;;;;22.98;100.00;97320.75;4979060;28;20469;-66
2021/08/02 04:56:01;;;;;;;1.70;1.60;;;;;;;23.00;100.00;97320.78;4980866;28;20668;-66
2021/08/02 04:58:28;;;;;;;1.57;1.47;;;;;;;23.00;100.00;97321.66;4983509;28;20225;-64
2021/08/02 05:00:55;;;;;;;1.67;1.57;;;;;;;23.01;100.00;97325.94;4985742;28;20310;-65
2021/08/02 05:03:21;;;;;;;1.47;1.37;;;;;;;23.00;100.00;97324.22;4986548;28;20281;-66
2021/08/02 05:05:52;;;;;;;1.60;1.50;;;;;;;23.02;100.00;97334.50;4983489;28;20203;-65
2021/08/02 05:08:19;;;;;;;1.80;1.70;;;;;;;23.01;100.00;97325.09;4983988;28;20312;-65
2021/08/02 05:10:46;;;;;;;1.83;1.70;;;;;;;23.02;100.00;97325.13;4984312;28;20686;-67
2021/08/02 05:13:13;;;;;;;1.90;1.77;;;;;;;23.02;100.00;97322.56;4986262;28;20213;-65
2021/08/02 05:15:39;;;;;;;2.10;2.00;;;;;;;23.01;100.00;97320.81;4990126;28;20225;-66
2021/08/02 05:18:06;;;;;;;2.23;2.03;;;;;;;23.02;100.00;97335.38;4986818;28;20231;-68
2021/08/02 05:20:33;;;;;;;2.47;1.90;;;;;;;23.03;100.00;97338.78;4988676;28;20282;-66
2021/08/02 05:22:59;;;;;;;3.50;2.30;;;;;;;23.03;100.00;97341.34;4989330;28;20241;-66
2021/08/02 05:25:26;;;;;;;2.57;2.37;;;;;;;23.04;100.00;97336.25;4991292;28;20293;-65
2021/08/02 05:27:53;;;;;;;4.87;2.20;;;;;;;23.04;100.00;97341.38;4989779;28;20257;-67
2021/08/02 05:30:19;;;;;;;4.23;2.47;;;;;;;23.04;100.00;97343.94;4987520;28;20223;-65
2021/08/02 05:32:46;;;;;;;3.47;2.53;;;;;;;23.05;100.00;97344.81;4990466;28;20282;-65
2021/08/02 05:35:13;;;;;;;2.97;2.57;;;;;;;22.91;100.00;97318.91;4990308;28;20242;-65
2021/08/02 05:37:40;;;;;;;5.83;2.90;;;;;;;23.06;100.00;97343.97;4988816;28;20234;-65
2021/08/02 05:40:07;;;;;;;5.83;3.13;;;;;;;23.05;99.71;97345.69;4987823;28;20285;-65
2021/08/02 05:42:35;;;;;;;3.57;2.80;;;;;;;23.06;99.19;97346.53;4989966;28;20843;-67
2021/08/02 05:45:04;;;;;;;5.20;2.90;;;;;;;23.04;98.61;97343.94;4987860;28;20229;-65
2021/08/02 05:47:30;;;;;;;5.03;2.80;;;;;;;23.02;98.60;97345.63;4987780;28;20290;-64
2021/08/02 05:49:57;;;;;;;4.17;2.63;;;;;;;23.01;98.96;97350.72;5004653;28;20250;-65
2021/08/02 05:52:28;;;;;;;6.30;2.90;;;;;;;23.00;98.71;97349.84;4987873;28;20211;-65
2021/08/02 05:54:54;;;;;;;4.43;3.30;;;;;;;22.99;98.61;97357.50;4990172;28;20290;-67
2021/08/02 05:57:21;;;;;;;3.43;2.97;;;;;;;22.98;98.40;97356.63;4990183;28;20293;-66
2021/08/02 05:59:48;;;;;;;5.77;2.83;;;;;;;22.98;98.82;97354.06;4986995;28;20655;-66
2021/08/02 06:02:14;;;;;;;3.87;2.80;;;;;;;22.99;99.50;97360.94;4983751;28;20638;-66
2021/08/02 06:04:45;;;;;;;2.90;2.60;;;;;;;22.99;100.00;97350.69;4988261;28;20211;-67
2021/08/02 06:07:12;;;;;;;3.43;2.87;;;;;;;23.00;100.00;97361.78;4989545;28;20722;-65
2021/08/02 06:09:38;;;;;;;4.33;2.73;;;;;;;23.01;100.00;97360.97;4986447;28;20230;-65
2021/08/02 06:12:05;;;;;;;3.57;2.80;;;;;;;23.02;100.00;97363.59;4984323;28;20290;-65
2021/08/02 06:14:32;;;;;;;5.27;2.97;;;;;;;22.97;100.00;97357.47;4979437;28;20210;-67
2021/08/02 06:16:58;;;;;;;3.17;2.60;;;;;;;22.96;100.00;97358.31;4981925;28;20203;-66
2021/08/02 06:19:25;;;;;;;6.53;3.10;;;;;;;23.03;100.00;97369.56;5004163;28;20229;-66
2021/08/02 06:21:52;;;;;;;5.30;3.07;;;;;;;22.99;98.69;97372.91;4988295;28;20246;-66
2021/08/02 06:24:18;;;;;;;7.00;3.47;;;;;;;23.03;96.78;97377.25;4986774;28;20234;-66
2021/08/02 06:26:45;;;;;;;9.47;3.57;;;;;;;23.04;95.49;97381.56;4987974;28;20326;-67
2021/08/02 06:29:11;;;;;;;12.03;4.10;;;;;;;23.03;94.92;97385.81;4988066;28;20321;-66
2021/08/02 06:31:38;;;;;;;6.87;3.50;;;;;;;23.05;95.86;97388.41;4989484;28;20309;-66
2021/08/02 06:34:04;;;;;;;8.23;3.50;;;;;;;23.04;96.50;97392.66;4989602;28;20211;-66
2021/08/02 06:36:31;;;;;;;5.93;3.00;;;;;;;23.05;97.49;97388.41;4985422;28;20250;-67
2021/08/02 06:38:58;;;;;;;7.10;2.83;;;;;;;23.04;98.25;97391.81;4984181;28;20312;-66
2021/08/02 06:41:24;;;;;;;5.20;3.00;;;;;;;23.04;98.77;97387.53;4984791;28;20776;-65
2021/08/02 06:43:51;;;;;;;3.23;2.93;;;;;;;22.39;99.00;97275.06;4985755;28;20203;-66
2021/08/02 06:46:17;;;;;;;3.37;2.93;;;;;;;23.05;99.43;97393.53;4984891;28;20313;-66
2021/08/02 06:48:44;;;;;;;3.80;2.60;;;;;;;23.06;99.69;97390.13;4984467;28;20227;-66
2021/08/02 06:51:12;;;;;;;3.00;2.67;;;;;;;23.06;100.00;97387.56;4985187;28;20677;-67
2021/08/02 06:53:39;;;;;;;4.90;3.00;;;;;;;23.05;100.00;97391.84;4980553;28;20656;-66
2021/08/02 06:56:06;;;;;;;5.73;2.90;;;;;;;23.05;100.00;97396.97;4985339;28;20338;-66
2021/08/02 06:58:33;;;;;;;3.97;2.87;;;;;;;23.05;100.00;97396.09;4986864;28;20273;-66
2021/08/02 07:00:59;;;;;;;3.77;2.73;;;;;;;23.04;100.00;97391.81;4982117;28;20207;-66
2021/08/02 07:03:26;;;;;;;2.83;2.63;;;;;;;23.02;100.00;97391.78;4985811;28;20375;-66
2021/08/02 07:05:54;;;;;;;3.00;2.70;;;;;;;23.00;100.00;97393.44;4987932;28;20206;-66
2021/08/02 07:08:20;;;;;;;3.17;2.90;;;;;;;22.99;100.00;97390.84;4986740;28;20771;-66
2021/08/02 07:10:47;;;;;;;4.63;2.60;;;;;;;22.98;100.00;97395.09;4985949;28;20306;-65
2021/08/02 07:13:14;;;;;;;4.03;2.90;;;;;;;22.98;100.00;97395.09;4986843;28;20285;-66
2021/08/02 07:15:41;;;;;;;5.60;2.83;;;;;;;22.98;100.00;97391.69;4984092;28;20207;-66
2021/08/02 07:18:08;;;;;;;2.87;2.60;;;;;;;22.98;100.00;97387.41;4979118;28;20347;-67
2021/08/02 07:20:35;;;;;;;3.50;2.53;;;;;;;22.98;100.00;97387.41;4980332;28;20426;-65
2021/08/02 07:23:02;;;;;;;4.63;2.70;;;;;;;22.98;100.00;97389.97;4978065;28;20241;-66
2021/08/02 07:25:29;;;;;;;3.23;2.87;;;;;;;22.99;100.00;97388.28;4977672;28;20243;-66
2021/08/02 07:27:55;;;;;;;3.40;2.50;;;;;;;23.00;100.00;97392.56;4979329;28;20261;-66
2021/08/02 07:30:22;;;;;;;3.10;2.80;;;;;;;23.00;100.00;97395.13;4977399;28;20228;-65
2021/08/02 07:32:48;;;;;;;4.17;2.90;;;;;;;23.00;100.00;97395.13;4981117;28;20307;-65
2021/08/02 07:35:15;;;;;;;3.30;2.70;;;;;;;23.01;100.00;97404.56;4977263;28;20294;-67
2021/08/02 07:37:42;;;;;;;3.20;2.90;;;;;;;23.00;100.00;97392.56;4979174;28;20685;-66
2021/08/02 07:40:09;;;;;;;4.33;2.70;;;;;;;23.02;100.00;97404.59;4977715;28;20294;-67
2021/08/02 07:42:35;;;;;;;3.43;3.10;;;;;;;23.01;100.00;97402.84;4978663;28;20665;-66
2021/08/02 07:45:03;;;;;;;3.33;3.03;;;;;;;23.02;100.00;97398.59;4979151;28;20203;-67
2021/08/02 07:47:30;;;;;;;2.67;2.40;;;;;;;23.01;100.00;97395.16;4978132;28;20294;-66
2021/08/02 07:49:56;;;;;;;3.03;2.70;;;;;;;23.02;100.00;97404.59;4976359;28;20306;-66
2021/08/02 07:52:24;;;;;;;3.27;2.63;;;;;;;23.01;100.00;97402.84;4977187;28;20239;-67
2021/08/02 07:54:50;;;;;;;2.63;2.43;;;;;;;23.02;100.00;97396.03;4986124;28;20213;-65
2021/08/02 07:57:17;;;;;;;2.90;2.57;;;;;;;23.03;100.00;97400.31;4980585;28;20649;-65
2021/08/02 07:59:43;;;;;;;2.40;2.20;;;;;;;23.04;100.00;97399.50;4984928;28;20258;-66
2021/08/02 08:02:10;;;;;;;3.90;3.07;;;;;;;23.03;100.00;97396.06;4986673;28;20249;-68
2021/08/02 08:04:37;;;;;;;5.23;3.23;;;;;;;23.01;99.30;97396.88;4984064;28;20265;-66
2021/08/02 08:07:03;;;;;;;3.70;3.27;;;;;;;23.01;98.25;97399.44;4986775;28;20264;-68
2021/08/02 08:09:30;;;;;;;5.67;3.40;;;;;;;22.99;97.34;97404.53;4986278;28;20258;-66
2021/08/02 08:11:56;;;;;;;6.43;3.00;;;;;;;22.97;97.30;97403.63;4985085;28;20333;-67
2021/08/02 08:14:23;;;;;;;4.30;3.10;;;;;;;22.97;97.61;97407.88;4986557;28;20877;-66
2021/08/02 08:16:50;;;;;;;5.30;3.20;;;;;;;22.97;97.77;97402.75;4998345;28;20274;-66
2021/08/02 08:19:16;;;;;;;4.37;3.23;;;;;;;22.98;98.07;97407.06;4986053;28;20231;-67
2021/08/02 08:21:43;;;;;;;3.90;3.27;;;;;;;22.66;98.00;97357.66;4986068;28;20245;-66
2021/08/02 08:24:10;;;;;;;8.47;3.30;;;;;;;21.98;98.21;97234.00;4984796;28;20206;-67
2021/08/02 08:26:36;;;;;;;5.87;2.83;;;;;;;22.99;98.79;97419.03;4984993;28;20297;-67
2021/08/02 08:29:03;;;;;;;4.00;2.90;;;;;;;22.99;99.28;97419.91;4985916;28;20494;-66
2021/08/02 08:31:30;;;;;;;4.57;3.30;;;;;;;22.99;99.27;97419.91;4984812;28;20313;-66
2021/08/02 08:33:57;;;;;;;3.53;3.20;;;;;;;23.00;99.12;97416.50;4983560;28;20202;-66
2021/08/02 08:36:23;;;;;;;3.20;2.90;;;;;;;23.00;99.10;97423.31;4984915;28;20644;-66
2021/08/02 08:38:50;;;;;;;5.37;3.20;;;;;;;23.01;98.74;97425.06;4998944;28;20310;-67
2021/08/02 08:41:18;;;;;;;6.83;3.03;;;;;;;23.01;99.06;97425.06;4991091;28;20700;-66
2021/08/02 08:43:44;;;;;;;2.70;2.50;;;;;;;23.02;98.96;97421.66;4986700;28;20238;-66
2021/08/02 08:46:11;;;;;;;3.73;3.43;;;;;;;23.03;99.13;97423.38;4981505;28;20307;-67
2021/08/02 08:48:38;;;;;;;4.27;3.00;;;;;;;23.02;99.32;97425.09;4986236;28;20254;-66
2021/08/02 08:51:04;;;;;;;3.30;3.00;;;;;;;22.97;99.30;97413.00;4984614;28;20313;-66
2021/08/02 08:53:32;;;;;;;3.80;3.50;;;;;;;23.03;99.56;97426.81;4988805;28;20301;-66
2021/08/02 08:55:59;;;;;;;3.63;3.03;;;;;;;23.02;99.40;97419.97;4985519;28;20298;-65
2021/08/02 08:58:25;;;;;;;3.50;3.20;;;;;;;23.03;99.57;97420.81;4988953;28;20233;-66
2021/08/02 09:00:59;;;;;;;3.37;3.00;;;;;;;23.03;100.00;97426.81;4990219;28;20679;-67
2021/08/02 09:03:27;;;;;;;3.67;2.93;;;;;;;23.02;100.00;97419.97;4990132;28;20199;-67
2021/08/02 09:06:04;;;;;;;3.20;2.93;;;;;;;23.03;100.00;97426.81;4989503;28;20322;-66
2021/08/02 09:08:39;;;;;;;3.20;2.83;;;;;;;23.04;100.00;97422.56;4986031;28;20237;-67
2021/08/02 09:11:06;;;;;;;5.30;3.10;;;;;;;23.05;100.00;97426.84;4983966;28;20313;-67
2021/08/02 09:13:33;;;;;;;3.20;2.90;;;;;;;23.05;100.00;97426.84;4985742;28;20213;-67
2021/08/02 09:16:16;;;;;;;3.17;2.87;;;;;;;23.04;100.00;97423.41;4983669;28;20211;-66
2021/08/02 09:18:58;;;;;;;5.63;3.23;;;;;;;23.02;100.00;97427.66;4982682;28;20756;-67
2021/08/02 09:21:26;;;;;;;5.57;2.67;;;;;;;23.01;100.00;97422.50;4989776;28;20655;-66
2021/08/02 09:23:53;;;;;;;4.97;2.63;;;;;;;23.00;100.00;97419.06;4989408;28;20298;-66
2021/08/02 09:26:30;;;;;;;6.03;2.77;;;;;;;22.98;98.40;97423.28;4988221;28;20239;-67
2021/08/02 09:28:57;;;;;;;3.23;2.90;;;;;;;22.98;98.86;97428.41;4987474;28;20234;-66
2021/08/02 09:31:40;;;;;;;3.10;2.80;;;;;;;22.98;99.27;97435.25;4990158;28;20305;-66
2021/08/02 09:34:08;;;;;;;3.23;2.93;;;;;;;22.99;99.73;97429.28;4988435;28;20211;-66
2021/08/02 09:36:53;;;;;;;3.13;2.83;;;;;;;22.99;100.00;97429.28;4986186;28;20227;-67
2021/08/02 09:39:20;;;;;;;3.33;2.97;;;;;;;22.99;100.00;97430.16;4985862;28;20257;-66
2021/08/02 09:41:47;;;;;;;4.17;2.90;;;;;;;23.01;100.00;97448.13;4989773;28;20656;-66
2021/08/02 09:44:24;;;;;;;5.83;3.10;;;;;;;23.03;100.00;97436.19;4989206;28;20305;-66
2021/08/02 09:46:53;;;;;;;3.77;2.90;;;;;;;23.03;100.00;97444.75;4989698;28;20207;-67
2021/08/02 09:49:20;;;;;;;3.57;2.87;;;;;;;23.05;100.00;97437.09;4984157;28;20642;-67
2021/08/02 09:51:46;;;;;;;3.20;2.80;;;;;;;23.05;100.00;97439.66;4983912;28;20660;-66
2021/08/02 09:54:29;;;;;;;4.00;2.63;;;;;;;22.97;100.00;97429.25;4987448;28;20301;-66
2021/08/02 09:56:56;;;;;;;3.27;2.97;;;;;;;23.03;100.00;97438.75;4975689;28;20222;-67
2021/08/02 09:59:22;;;;;;;3.43;2.70;;;;;;;23.02;100.00;97439.59;4988170;28;20534;-66
2021/08/02 10:01:50;;;;;;;3.80;2.77;;;;;;;23.00;100.00;97439.56;4988649;28;20226;-66
2021/08/02 10:04:17;;;;;;;3.70;2.60;;;;;;;22.99;100.00;97435.28;4986350;28;20211;-66
2021/08/02 10:06:44;;;;;;;2.80;2.60;;;;;;;23.00;100.00;97436.13;4986947;28;20708;-67
2021/08/02 10:09:12;;;;;;;3.77;3.00;;;;;;;23.00;100.00;97434.44;4988762;28;20230;-66
2021/08/02 10:11:42;;;;;;;3.20;2.90;;;;;;;23.01;100.00;97436.16;4987117;28;20277;-67
2021/08/02 10:14:10;;;;;;;3.50;3.00;;;;;;;22.97;100.00;97426.69;4987936;28;20668;-66
2021/08/02 10:16:38;;;;;;;4.23;2.50;;;;;;;22.96;100.00;97416.41;4983597;28;20204;-65
2021/08/02 10:19:09;;;;;;;3.70;2.50;;;;;;;23.02;100.00;97437.03;4972806;28;20258;-66
2021/08/02 10:21:43;;;;;;;3.43;2.60;;;;;;;23.02;100.00;97427.66;4988369;28;20227;-66
2021/08/02 10:24:14;;;;;;;3.53;2.93;;;;;;;23.03;100.00;97431.06;4986000;28;20199;-67
2021/08/02 10:26:41;;;;;;;3.00;2.50;;;;;;;23.03;100.00;97428.50;4987398;28;20198;-66
2021/08/02 10:29:08;;;;;;;2.93;2.70;;;;;;;23.03;100.00;97424.25;4987746;28;20941;-66
2021/08/02 10:31:51;;;;;;;3.80;2.60;;;;;;;23.03;100.00;97416.56;4987609;28;20683;-66
2021/08/02 10:34:22;;;;;;;3.43;2.80;;;;;;;23.03;100.00;97421.69;4988980;28;20793;-66
2021/08/02 10:37:04;;;;;;;3.50;2.77;;;;;;;22.98;100.00;97409.63;4988501;28;20227;-66
2021/08/02 10:39:32;;;;;;;2.70;2.50;;;;;;;23.03;100.00;97411.44;4971507;28;20322;-66
2021/08/02 10:42:08;;;;;;;4.07;2.60;;;;;;;23.03;100.00;97415.69;4983292;28;20740;-66
2021/08/02 10:44:55;;;;;;;3.00;2.70;;;;;;;23.01;100.00;97412.25;4988276;28;20207;-67
2021/08/02 10:47:22;;;;;;;3.77;2.70;;;;;;;22.99;100.00;97404.53;4988425;28;20207;-67
2021/08/02 10:49:49;;;;;;;3.10;2.80;;;;;;;22.99;100.00;97395.97;4987817;28;20227;-67
2021/08/02 10:52:29;;;;;;;2.70;2.50;;;;;;;22.98;100.00;97396.81;4986021;28;20233;-66
2021/08/02 10:54:59;;;;;;;2.73;2.50;;;;;;;22.98;100.00;97391.69;4988346;28;20221;-66
2021/08/02 10:57:25;;;;;;;2.83;2.50;;;;;;;22.98;100.00;97384.84;5002954;28;20293;-66
2021/08/02 10:59:52;;;;;;;3.00;2.70;;;;;;;22.99;100.00;97391.72;4987564;28;20761;-67
2021/08/02 11:02:20;;;;;;;2.77;2.57;;;;;;;22.98;100.00;97387.41;4994410;28;20235;-66
2021/08/02 11:04:53;;;;;;;3.20;2.90;;;;;;;22.98;100.00;97389.97;4984946;28;20211;-66
2021/08/02 11:07:20;;;;;;;3.37;2.90;;;;;;;22.99;100.00;97383.16;4986480;28;20203;-66
2021/08/02 11:09:47;;;;;;;3.47;2.97;;;;;;;22.99;100.00;97378.91;5007760;28;20305;-66
2021/08/02 11:12:14;;;;;;;3.17;2.87;;;;;;;23.00;100.00;97374.63;4982123;28;20230;-66
2021/08/02 11:14:47;;;;;;;3.00;2.80;;;;;;;22.99;100.00;97373.78;4987950;28;20207;-67
2021/08/02 11:17:17;;;;;;;4.57;3.13;;;;;;;23.01;100.00;97372.06;4976906;28;20207;-66
2021/08/02 11:20:04;;;;;;;3.97;3.07;;;;;;;23.00;100.00;97367.78;4987215;28;20203;-66
2021/08/02 11:22:30;;;;;;;4.77;3.27;;;;;;;23.01;100.00;97366.13;4985080;28;20286;-65
2021/08/02 11:24:57;;;;;;;5.00;3.40;;;;;;;23.01;100.00;97368.69;4984705;28;20651;-66
2021/08/02 11:27:24;;;;;;;3.33;2.90;;;;;;;23.02;100.00;97367.84;4986024;28;20736;-67
2021/08/02 11:29:52;;;;;;;5.03;3.00;;;;;;;23.00;100.00;97366.91;4985629;28;20321;-66
2021/08/02 11:32:20;;;;;;;4.33;2.90;;;;;;;22.99;100.00;97360.94;4980354;28;21126;-66
2021/08/02 11:34:54;;;;;;;4.77;3.17;;;;;;;22.98;100.00;97361.75;4982677;28;20757;-67